Main page
METAR-TAF:

METAR-TAF

Airports :

Wick Airport

Wick, Scotland

latitude: 58-27N, longitude: 003-05W, elevation: 39 m

Current weather observation

The report was made 24 minutes ago, at 13:20 UTC
Wind 5 kt from the West/Southwest
Temperature 3°C
Humidity 87%
Pressure 996 hPa
Visibility 10 km or more
Few clouds at a height of 1500 ft, Cumulonimbus.
Few clouds at a height of 2100 ft
light rain showers

METAR: EGPC 131320Z 24005KT 9999 -SHRA FEW015CB FEW021 03/01 Q0996

Time: 13:44 (13:44 UTC)

Forecast

The report was made 2 hours and 47 minutes ago, at 10:57 UTC
Forecast valid from 13 at 12 UTC to 13 at 21 UTC
Wind 8 kt from the West/Northwest
Visibility 10 km or more
Few clouds at a height of 3500 ft
Temporary
from 13 at 12 UTC to 13 at 21 UTC
Visibility: 7000 m
rain showers
Probability 30% :
Temporary
from 13 at 12 UTC to 13 at 21 UTC
Visibility: 4000 m
rain showers, snow

TAF: EGPC 131057Z 1312/1321 30008KT 9999 FEW035 TEMPO 1312/1321 7000 SHRA PROB30 TEMPO 1312/1321 4000 SHRASN

Weather observations and forecasts of more than 4000 airports (METAR and TAF reports).

The available stations are represented by yellow and red dots on the map.

Hover mouse over dot to see the name of the station.

Then click to see weather observations and forecasts.

To change the map : click on the green buttons with a black cross to zoom in, on the green button with a dash to zoom out, or on the green arrows for adjacent maps.


METAR-TAF: